createdAt,value
2017-03-03T00:00:48.692Z,58.42
2017-03-03T00:01:57.572Z,58.04
2017-03-03T00:03:06.865Z,58.42
2017-03-03T00:04:15.792Z,58.71
2017-03-03T00:05:24.707Z,58.52
2017-03-03T00:06:33.592Z,57.65
2017-03-03T00:07:42.483Z,58.23
2017-03-03T00:08:51.367Z,57.65
2017-03-03T00:10:00.254Z,57.65
2017-03-03T00:11:09.168Z,57.75
2017-03-03T00:12:18.069Z,58.62
2017-03-03T00:13:27.367Z,57.95
2017-03-03T00:14:36.260Z,57.85
2017-03-03T00:15:45.180Z,57.65
2017-03-03T00:16:54.070Z,58.62
2017-03-03T00:18:02.985Z,58.33
2017-03-03T00:19:11.870Z,58.81
2017-03-03T00:20:20.773Z,58.69
2017-03-03T00:21:29.674Z,58.2
2017-03-03T00:22:38.562Z,58.39
2017-03-03T00:23:47.441Z,58.59
2017-03-03T00:24:56.645Z,58.78
2017-03-03T00:26:05.573Z,58.97
2017-03-03T00:27:14.486Z,59.06
2017-03-03T00:28:23.727Z,58.3
2017-03-03T00:29:33.228Z,58.59
2017-03-03T00:30:42.125Z,58.78
2017-03-03T00:31:51.042Z,58.62
2017-03-03T00:32:59.941Z,58.69
2017-03-03T00:34:09.666Z,58.3
2017-03-03T00:35:18.588Z,58.59
2017-03-03T00:36:27.489Z,58.78
2017-03-03T00:37:36.384Z,58.49
2017-03-03T00:38:45.289Z,58.69
2017-03-03T00:39:54.182Z,58.97
2017-03-03T00:41:03.087Z,58.78
2017-03-03T00:42:11.977Z,58.87
2017-03-03T00:43:20.857Z,58.59
2017-03-03T00:44:29.773Z,58.69
2017-03-03T00:45:38.665Z,58.69
2017-03-03T00:46:47.563Z,58.87
2017-03-03T00:47:56.454Z,58.87
2017-03-03T00:49:05.362Z,58.49
2017-03-03T00:50:14.239Z,58.46
2017-03-03T00:51:23.123Z,58.78
2017-03-03T00:52:32.002Z,58.65
2017-03-03T00:53:40.883Z,58.59
2017-03-03T00:54:49.784Z,58.46
2017-03-03T00:55:58.679Z,58.75
2017-03-03T00:57:07.562Z,58.84
2017-03-03T00:58:16.466Z,58.75
2017-03-03T00:59:25.377Z,58.27
2017-03-03T01:00:34.275Z,58.46
2017-03-03T01:01:43.562Z,58.56
2017-03-03T01:02:52.453Z,58.17
2017-03-03T01:04:01.342Z,58.46
2017-03-03T01:05:10.223Z,57.98
2017-03-03T01:06:19.119Z,58.37
2017-03-03T01:07:28.032Z,58.65
2017-03-03T01:08:37.333Z,57.89
2017-03-03T01:09:46.223Z,58.08
2017-03-03T01:10:55.110Z,58.46
2017-03-03T01:12:04.041Z,58.17
2017-03-03T01:13:13.331Z,58.75
2017-03-03T01:14:22.216Z,58.65
2017-03-03T01:15:31.129Z,58.75
2017-03-03T01:16:40.023Z,58.75
2017-03-03T01:17:48.908Z,58.65
2017-03-03T01:18:57.788Z,58.75
2017-03-03T01:20:12.952Z,57.79
2017-03-03T01:21:21.850Z,58.08
2017-03-03T01:22:30.745Z,57.31
2017-03-03T01:23:39.650Z,57.5
2017-03-03T01:24:48.549Z,57.89
2017-03-03T01:25:57.459Z,58.08
2017-03-03T01:27:06.340Z,58.37
2017-03-03T01:28:15.249Z,57.95
2017-03-03T01:29:24.128Z,57.6
2017-03-03T01:30:33.023Z,57.5
2017-03-03T01:31:41.937Z,57.86
2017-03-03T01:32:50.814Z,57.95
2017-03-03T01:33:59.699Z,57.5
2017-03-03T01:35:08.622Z,56.99
2017-03-03T01:36:17.919Z,56.99
2017-03-03T01:37:26.819Z,57.38
2017-03-03T01:38:35.704Z,57.79
2017-03-03T01:39:44.587Z,57.89
2017-03-03T01:40:53.485Z,57.57
2017-03-03T01:42:02.366Z,57.67
2017-03-03T01:43:11.291Z,56.9
2017-03-03T01:44:20.187Z,57.48
2017-03-03T01:45:29.102Z,57.57
2017-03-03T01:46:37.980Z,57.57
2017-03-03T01:47:46.880Z,57.86
2017-03-03T01:48:55.769Z,57.09
2017-03-03T01:50:04.649Z,57.48
2017-03-03T01:51:13.521Z,57.19
2017-03-03T01:52:22.414Z,57.67
2017-03-03T01:53:31.298Z,57.38
2017-03-03T01:54:40.194Z,57.76
2017-03-03T01:55:49.102Z,57.95
2017-03-03T01:56:57.988Z,58.44
2017-03-03T01:58:06.929Z,57.95
2017-03-03T01:59:15.840Z,57.86
2017-03-03T02:00:24.721Z,57.95
2017-03-03T02:01:33.622Z,58.15
2017-03-03T02:02:42.523Z,57.86
2017-03-03T02:03:51.452Z,58.62
2017-03-03T02:05:00.783Z,57.86
2017-03-03T02:06:10.113Z,58.05
2017-03-03T02:07:19.412Z,57.67
2017-03-03T02:08:28.296Z,57.76
2017-03-03T02:09:37.166Z,58.34
2017-03-03T02:10:46.058Z,57.86
2017-03-03T02:11:54.955Z,57.95
2017-03-03T02:13:04.249Z,58.62
2017-03-03T02:14:13.157Z,57.95
2017-03-03T02:15:22.040Z,57.95
2017-03-03T02:16:30.919Z,58.05
2017-03-03T02:17:39.788Z,57.76
2017-03-03T02:18:48.683Z,58.24
2017-03-03T02:19:57.566Z,57.86
2017-03-03T02:21:06.469Z,58.24
2017-03-03T02:22:15.353Z,57.28
2017-03-03T02:23:24.244Z,57.95
2017-03-03T02:24:33.174Z,57.95
2017-03-03T02:25:42.457Z,57.95
2017-03-03T02:26:51.355Z,58.15
2017-03-03T02:28:00.257Z,58.53
2017-03-03T02:29:09.146Z,58.53
2017-03-03T02:30:18.021Z,58.62
2017-03-03T02:31:27.331Z,58.44
2017-03-03T02:32:36.267Z,58.34
2017-03-03T02:33:45.156Z,58.44
2017-03-03T02:34:54.075Z,58.62
2017-03-03T02:36:02.981Z,58.24
2017-03-03T02:37:11.876Z,58.53
2017-03-03T02:38:20.768Z,58.34
2017-03-03T02:39:29.670Z,58.62
2017-03-03T02:40:38.559Z,58.24
2017-03-03T02:41:47.444Z,58.62
2017-03-03T02:42:56.360Z,58.53
2017-03-03T02:44:05.246Z,58.72
2017-03-03T02:45:14.128Z,58.34
2017-03-03T02:46:23.033Z,58.69
2017-03-03T02:47:31.956Z,58.44
2017-03-03T02:48:40.853Z,58.5
2017-03-03T02:49:50.160Z,58.5
2017-03-03T02:50:59.052Z,58.69
2017-03-03T02:52:07.951Z,58.59
2017-03-03T02:53:16.856Z,59.08
2017-03-03T02:54:25.768Z,58.88
2017-03-03T02:55:34.661Z,58.53
2017-03-03T02:56:43.538Z,58.59
2017-03-03T02:57:52.819Z,58.69
2017-03-03T02:59:01.703Z,58.98
2017-03-03T03:00:10.592Z,58.98
2017-03-03T03:01:19.488Z,58.98
2017-03-03T03:02:28.392Z,58.88
2017-03-03T03:03:37.288Z,58.98
2017-03-03T03:04:46.165Z,58.98
2017-03-03T03:05:55.052Z,58.88
2017-03-03T03:07:03.947Z,58.5
2017-03-03T03:08:12.853Z,58.59
2017-03-03T03:09:21.745Z,58.81
2017-03-03T03:10:30.651Z,58.72
2017-03-03T03:11:39.532Z,58.79
2017-03-03T03:12:48.405Z,58.59
2017-03-03T03:13:57.293Z,58.81
2017-03-03T03:15:06.202Z,58.59
2017-03-03T03:16:15.514Z,58.59
2017-03-03T03:17:24.392Z,58.59
2017-03-03T03:18:33.277Z,58.59
2017-03-03T03:19:42.164Z,58.59
2017-03-03T03:20:51.064Z,58.5
2017-03-03T03:21:59.966Z,58.59
2017-03-03T03:23:08.846Z,58.59
2017-03-03T03:24:18.149Z,58.5
2017-03-03T03:25:27.031Z,58.5
2017-03-03T03:26:35.964Z,58.69
2017-03-03T03:27:44.866Z,58.5
2017-03-03T03:28:53.750Z,58.98
2017-03-03T03:30:02.624Z,58.98
2017-03-03T03:31:11.512Z,58.98
2017-03-03T03:32:20.408Z,58.5
2017-03-03T03:33:29.700Z,58.5
2017-03-03T03:34:38.605Z,58.69
2017-03-03T03:35:47.540Z,58.59
2017-03-03T03:36:56.460Z,58.59
2017-03-03T03:38:05.757Z,58.5
2017-03-03T03:39:14.681Z,58.5
2017-03-03T03:40:23.581Z,58.69
2017-03-03T03:41:32.488Z,58.69
2017-03-03T03:42:41.397Z,58.4
2017-03-03T03:43:50.332Z,58.69
2017-03-03T03:44:59.225Z,58.69
2017-03-03T03:46:08.108Z,58.5
2017-03-03T03:47:16.995Z,58.5
2017-03-03T03:48:25.870Z,58.4
2017-03-03T03:49:34.774Z,58.59
2017-03-03T03:50:43.682Z,58.69
2017-03-03T03:51:52.758Z,58.4
2017-03-03T03:53:01.652Z,58.59
2017-03-03T03:54:10.540Z,58.22
2017-03-03T03:55:19.464Z,58.12
2017-03-03T03:56:28.356Z,58.59
2017-03-03T03:57:37.267Z,58.5
2017-03-03T03:58:46.156Z,58.22
2017-03-03T03:59:55.040Z,58.12
2017-03-03T04:01:03.949Z,57.92
2017-03-03T04:02:12.863Z,58.4
2017-03-03T04:03:21.794Z,57.83
2017-03-03T04:04:30.714Z,58.22
2017-03-03T04:05:39.657Z,58.4
2017-03-03T04:06:48.561Z,57.73
2017-03-03T04:07:57.448Z,58.12
2017-03-03T04:09:06.331Z,58.5
2017-03-03T04:10:15.227Z,58.5
2017-03-03T04:11:24.123Z,58.5
2017-03-03T04:12:33.050Z,58.02
2017-03-03T04:13:41.953Z,57.92
2017-03-03T04:14:50.856Z,58.5
2017-03-03T04:15:59.771Z,58.4
2017-03-03T04:17:09.085Z,58.5
2017-03-03T04:18:17.979Z,58.5
2017-03-03T04:19:26.868Z,58.12
2017-03-03T04:20:35.778Z,58.4
2017-03-03T04:21:44.666Z,58.5
2017-03-03T04:22:53.545Z,58.12
2017-03-03T04:24:02.425Z,57.83
2017-03-03T04:25:11.316Z,57.83
2017-03-03T04:26:20.202Z,58.31
2017-03-03T04:27:29.080Z,58.5
2017-03-03T04:28:37.979Z,58.47
2017-03-03T04:29:46.884Z,58.02
2017-03-03T04:30:55.780Z,57.45
2017-03-03T04:32:04.706Z,57.54
2017-03-03T04:33:13.610Z,57.54
2017-03-03T04:34:22.528Z,57.92
2017-03-03T04:35:31.411Z,58.02
2017-03-03T04:36:40.322Z,57.99
2017-03-03T04:37:49.209Z,57.64
2017-03-03T04:38:58.123Z,58.22
2017-03-03T04:40:07.422Z,57.7
2017-03-03T04:41:16.351Z,57.7
2017-03-03T04:42:25.268Z,57.8
2017-03-03T04:43:34.147Z,58.28
2017-03-03T04:44:43.022Z,58.4
2017-03-03T04:45:52.317Z,57.83
2017-03-03T04:47:01.641Z,57.83
2017-03-03T04:48:10.521Z,57.54
2017-03-03T04:49:19.401Z,57.32
2017-03-03T04:50:28.306Z,58.28
2017-03-03T04:51:37.194Z,57.51
2017-03-03T04:52:46.068Z,57.64
2017-03-03T04:53:54.955Z,58.28
2017-03-03T04:55:03.849Z,57.8
2017-03-03T04:56:12.731Z,57.8
2017-03-03T04:57:21.608Z,57.8
2017-03-03T04:58:30.520Z,57.8
2017-03-03T04:59:39.423Z,58.28
2017-03-03T05:00:48.331Z,58.28
2017-03-03T05:01:57.224Z,58.18
2017-03-03T05:03:06.139Z,57.99
2017-03-03T05:04:15.018Z,57.7
2017-03-03T05:05:23.934Z,57.7
2017-03-03T05:06:32.821Z,57.61
2017-03-03T05:07:41.711Z,57.51
2017-03-03T05:08:50.699Z,57.42
2017-03-03T05:09:59.584Z,57.42
2017-03-03T05:11:08.460Z,57.9
2017-03-03T05:12:17.340Z,58.47
2017-03-03T05:13:26.224Z,58.76
2017-03-03T05:14:35.127Z,58.37
2017-03-03T05:15:44.050Z,58.18
2017-03-03T05:16:52.946Z,58.37
2017-03-03T05:18:01.860Z,57.7
2017-03-03T05:19:10.755Z,57.99
2017-03-03T05:20:19.633Z,58.09
2017-03-03T05:21:28.510Z,58.56
2017-03-03T05:22:37.792Z,58.66
2017-03-03T05:23:46.669Z,58.56
2017-03-03T05:24:55.759Z,58.56
2017-03-03T05:26:04.668Z,58.47
2017-03-03T05:27:13.590Z,58.37
2017-03-03T05:28:22.491Z,58.47
2017-03-03T05:29:31.791Z,58.56
2017-03-03T05:30:40.670Z,58.56
2017-03-03T05:31:49.595Z,58.66
2017-03-03T05:32:58.501Z,58.37
2017-03-03T05:34:07.819Z,58.47
2017-03-03T05:35:17.117Z,58.95
2017-03-03T05:36:26.044Z,58.66
2017-03-03T05:37:34.933Z,58.37
2017-03-03T05:38:43.833Z,58.37
2017-03-03T05:39:52.772Z,58.28
2017-03-03T05:41:01.657Z,58.56
2017-03-03T05:42:10.549Z,58.47
2017-03-03T05:43:19.457Z,58.76
2017-03-03T05:44:28.341Z,58.47
2017-03-03T05:45:37.237Z,58.37
2017-03-03T05:46:46.131Z,58.37
2017-03-03T05:47:55.028Z,58.28
2017-03-03T05:49:04.338Z,58.66
2017-03-03T05:50:13.226Z,58.47
2017-03-03T05:51:22.109Z,58.28
2017-03-03T05:52:31.020Z,58.47
2017-03-03T05:53:39.951Z,58.37
2017-03-03T05:54:48.838Z,58.47
2017-03-03T05:55:57.776Z,58.76
2017-03-03T05:57:06.678Z,58.37
2017-03-03T05:58:15.571Z,57.99
2017-03-03T05:59:24.481Z,57.9
2017-03-03T06:00:33.396Z,58.28
2017-03-03T06:01:42.700Z,58.56
2017-03-03T06:02:52.006Z,58.37
2017-03-03T06:04:00.901Z,57.7
2017-03-03T06:05:09.795Z,57.99
2017-03-03T06:06:18.684Z,58.47
2017-03-03T06:07:27.597Z,59.43
2017-03-03T06:08:36.480Z,61.25
2017-03-03T06:09:45.426Z,64.63
2017-03-03T06:10:54.739Z,68.27
2017-03-03T06:12:04.072Z,69.64
2017-03-03T06:13:13.392Z,69.64
2017-03-03T06:14:22.273Z,71.37
2017-03-03T06:15:31.157Z,69.54
2017-03-03T06:16:40.029Z,70.98
2017-03-03T06:17:48.919Z,71.66
2017-03-03T06:18:57.800Z,71.46
2017-03-03T06:20:07.079Z,71.69
2017-03-03T06:21:16.012Z,71.78
2017-03-03T06:22:24.916Z,72.07
2017-03-03T06:23:33.834Z,70.35
2017-03-03T06:24:42.754Z,69.39
2017-03-03T06:25:51.653Z,71.21
2017-03-03T06:27:00.544Z,72.17
2017-03-03T06:28:09.464Z,73.22
2017-03-03T06:29:18.368Z,73.13
2017-03-03T06:30:27.247Z,73.22
2017-03-03T06:31:36.157Z,74.18
2017-03-03T06:32:45.051Z,73.7
2017-03-03T06:33:53.962Z,74.85
2017-03-03T06:35:02.858Z,75.71
2017-03-03T06:36:11.752Z,74.76
2017-03-03T06:37:21.036Z,75.43
2017-03-03T06:38:29.920Z,76
2017-03-03T06:39:38.808Z,76.57
2017-03-03T06:40:47.711Z,76.32
2017-03-03T06:41:56.633Z,76.1
2017-03-03T06:43:05.513Z,76.77
2017-03-03T06:44:14.407Z,76.9
2017-03-03T06:45:23.310Z,77.09
2017-03-03T06:46:32.215Z,77.38
2017-03-03T06:47:41.118Z,78.25
2017-03-03T06:48:50.031Z,78.34
2017-03-03T06:49:58.952Z,77.86
2017-03-03T06:51:07.856Z,78.44
2017-03-03T06:52:16.759Z,78.53
2017-03-03T06:53:25.661Z,78.53
2017-03-03T06:54:34.553Z,78.05
2017-03-03T06:55:43.461Z,78.34
2017-03-03T06:56:52.362Z,78.15
2017-03-03T06:58:01.635Z,78.63
2017-03-03T06:59:10.931Z,78.63
2017-03-03T07:00:19.848Z,78.82
2017-03-03T07:01:28.767Z,79.3
2017-03-03T07:02:38.076Z,78.92
2017-03-03T07:03:46.958Z,78.44
2017-03-03T07:04:55.888Z,78.15
2017-03-03T07:06:04.774Z,78.53
2017-03-03T07:07:13.654Z,78.92
2017-03-03T07:08:22.572Z,78.44
2017-03-03T07:09:31.450Z,78.09
2017-03-03T07:10:40.383Z,77.61
2017-03-03T07:11:49.265Z,77.8
2017-03-03T07:12:58.163Z,78.38
2017-03-03T07:14:07.097Z,78.09
2017-03-03T07:15:15.983Z,77.13
2017-03-03T07:16:24.869Z,76.37
2017-03-03T07:17:33.783Z,76.56
2017-03-03T07:18:42.669Z,78
2017-03-03T07:19:51.595Z,78.77
2017-03-03T07:21:00.476Z,78.67
2017-03-03T07:22:09.352Z,78.13
2017-03-03T07:23:18.245Z,77.04
2017-03-03T07:24:27.175Z,78.38
2017-03-03T07:25:36.062Z,78.8
2017-03-03T07:26:44.957Z,78.61
2017-03-03T07:27:53.852Z,77.75
2017-03-03T07:29:02.740Z,78.13
2017-03-03T07:30:11.637Z,77.08
2017-03-03T07:31:20.557Z,77.65
2017-03-03T07:32:29.461Z,78.61
2017-03-03T07:33:38.336Z,77.08
2017-03-03T07:34:47.223Z,77.56
2017-03-03T07:35:56.546Z,77.26
2017-03-03T07:37:05.469Z,77.65
2017-03-03T07:38:14.371Z,77.69
2017-03-03T07:39:23.260Z,76.34
2017-03-03T07:40:32.154Z,76.92
2017-03-03T07:41:41.041Z,77.11
2017-03-03T07:42:49.935Z,76.25
2017-03-03T07:43:58.828Z,76.73
2017-03-03T07:45:07.709Z,77.11
2017-03-03T07:46:16.608Z,77.31
2017-03-03T07:47:25.494Z,75.77
2017-03-03T07:48:34.396Z,75.67
2017-03-03T07:49:43.683Z,75.77
2017-03-03T07:50:52.576Z,75.1
2017-03-03T07:52:01.922Z,74.62
2017-03-03T07:53:10.823Z,75.2
2017-03-03T07:54:19.732Z,74.52
2017-03-03T07:55:29.031Z,75.1
2017-03-03T07:56:37.930Z,75.23
2017-03-03T07:57:46.851Z,75
2017-03-03T07:58:55.751Z,75.52
2017-03-03T08:00:04.656Z,75.32
2017-03-03T08:01:13.557Z,74.85
2017-03-03T08:02:22.449Z,74.75
2017-03-03T08:03:31.328Z,75.42
2017-03-03T08:04:40.213Z,74.46
2017-03-03T08:05:49.102Z,74.85
2017-03-03T08:06:58.010Z,75.04
2017-03-03T08:08:07.330Z,74.46
2017-03-03T08:09:16.235Z,74.94
2017-03-03T08:10:25.518Z,74.46
2017-03-03T08:11:34.407Z,75.23
2017-03-03T08:12:43.297Z,74.94
2017-03-03T08:13:52.301Z,74.46
2017-03-03T08:15:01.590Z,74.94
2017-03-03T08:16:10.480Z,75.62
2017-03-03T08:17:19.401Z,74.94
2017-03-03T08:18:28.310Z,74.65
2017-03-03T08:19:37.193Z,74.46
2017-03-03T08:20:46.514Z,74.85
2017-03-03T08:21:55.423Z,74.65
2017-03-03T08:23:04.335Z,75.13
2017-03-03T08:24:13.239Z,75.13
2017-03-03T08:25:22.121Z,74.5
2017-03-03T08:26:30.998Z,74.98
2017-03-03T08:27:39.913Z,74.94
2017-03-03T08:28:48.817Z,74.94
2017-03-03T08:29:57.716Z,75.13
2017-03-03T08:31:06.995Z,75.17
2017-03-03T08:32:15.888Z,74.88
2017-03-03T08:33:24.772Z,75.27
2017-03-03T08:34:33.663Z,75.17
2017-03-03T08:35:42.567Z,74.94
2017-03-03T08:36:51.894Z,74.5
2017-03-03T08:38:00.768Z,74.69
2017-03-03T08:39:09.664Z,75.17
2017-03-03T08:40:18.571Z,74.98
2017-03-03T08:41:27.501Z,74.6
2017-03-03T08:42:36.439Z,74.5
2017-03-03T08:43:45.340Z,75.17
2017-03-03T08:44:54.233Z,75.27
2017-03-03T08:46:03.243Z,74.98
2017-03-03T08:47:12.137Z,74.69
2017-03-03T08:48:21.014Z,74.98
2017-03-03T08:49:29.905Z,74.69
2017-03-03T08:50:38.810Z,74.5
2017-03-03T08:51:47.734Z,75.17
2017-03-03T08:52:56.637Z,74.69
2017-03-03T08:54:05.533Z,74.6
2017-03-03T08:55:14.445Z,74.79
2017-03-03T08:56:23.421Z,74.98
2017-03-03T08:57:32.329Z,74.98
2017-03-03T08:58:41.227Z,74.98
2017-03-03T08:59:50.119Z,75.17
2017-03-03T09:00:59.009Z,74.98
2017-03-03T09:02:08.303Z,74.98
2017-03-03T09:03:17.203Z,75.02
2017-03-03T09:04:26.092Z,74.4
2017-03-03T09:05:35.007Z,74.6
2017-03-03T09:06:43.901Z,74.88
2017-03-03T09:07:52.793Z,75.37
2017-03-03T09:09:01.688Z,75.07
2017-03-03T09:10:10.611Z,75.31
2017-03-03T09:11:19.506Z,72.13
2017-03-03T09:12:28.400Z,69.02
2017-03-03T09:13:37.297Z,65.66
2017-03-03T09:14:46.234Z,64.66
2017-03-03T09:15:55.539Z,63.6
2017-03-03T09:17:04.454Z,62.84
2017-03-03T09:18:13.352Z,63.22
2017-03-03T09:19:22.236Z,62.35
2017-03-03T09:20:31.132Z,61.58
2017-03-03T09:21:40.020Z,61.2
2017-03-03T09:22:49.322Z,60.43
2017-03-03T09:23:58.235Z,60.63
2017-03-03T09:25:07.111Z,59.92
2017-03-03T09:26:16.010Z,60.4
2017-03-03T09:27:25.117Z,59.34
2017-03-03T09:28:34.014Z,59.83
2017-03-03T09:29:42.909Z,59.83
2017-03-03T09:30:51.816Z,59.73
2017-03-03T09:32:00.740Z,59.16
2017-03-03T09:33:10.118Z,59.34
2017-03-03T09:34:19.475Z,59.06
2017-03-03T09:35:28.373Z,58.96
2017-03-03T09:36:37.274Z,58.58
2017-03-03T09:37:46.205Z,58.84
2017-03-03T09:38:55.131Z,58.67
2017-03-03T09:40:04.067Z,58.58
2017-03-03T09:41:12.965Z,58.64
2017-03-03T09:42:21.883Z,58.74
2017-03-03T09:43:30.776Z,58.64
2017-03-03T09:44:39.689Z,58.17
2017-03-03T09:45:48.589Z,58.07
2017-03-03T09:46:57.473Z,58.07
2017-03-03T09:48:06.387Z,58.17
2017-03-03T09:49:15.360Z,58.55
2017-03-03T09:50:24.247Z,58.74
2017-03-03T09:51:33.179Z,58.74
2017-03-03T09:52:42.116Z,57.88
2017-03-03T09:53:51.048Z,58.45
2017-03-03T09:55:00.371Z,57.97
2017-03-03T09:56:09.448Z,58.36
2017-03-03T09:57:18.747Z,58.36
2017-03-03T09:58:27.656Z,58.07
2017-03-03T09:59:36.571Z,58.17
2017-03-03T10:00:45.475Z,57.68
2017-03-03T10:01:54.363Z,57.68
2017-03-03T10:03:03.280Z,57.59
2017-03-03T10:04:12.187Z,57.78
2017-03-03T10:05:21.088Z,57.97
2017-03-03T10:06:30.005Z,57.97
2017-03-03T10:07:38.898Z,57.59
2017-03-03T10:08:47.813Z,57.97
2017-03-03T10:09:56.733Z,57.88
2017-03-03T10:11:05.640Z,57.59
2017-03-03T10:12:14.559Z,57.88
2017-03-03T10:13:23.442Z,57.97
2017-03-03T10:14:32.370Z,58.07
2017-03-03T10:15:41.290Z,58.84
2017-03-03T10:16:50.185Z,60.08
2017-03-03T10:17:59.096Z,61.17
2017-03-03T10:19:07.999Z,61.94
2017-03-03T10:20:16.903Z,62.32
2017-03-03T10:21:25.804Z,62.23
2017-03-03T10:22:34.723Z,62.52
2017-03-03T10:23:43.616Z,62.42
2017-03-03T10:24:52.506Z,61.55
2017-03-03T10:26:01.816Z,62.13
2017-03-03T10:27:10.740Z,61.68
2017-03-03T10:28:19.662Z,62.71
2017-03-03T10:29:28.573Z,63.19
2017-03-03T10:30:37.464Z,62.9
2017-03-03T10:31:46.394Z,62.42
2017-03-03T10:32:55.275Z,63.6
2017-03-03T10:34:04.157Z,62.13
2017-03-03T10:35:13.048Z,63.12
2017-03-03T10:36:21.949Z,64.18
2017-03-03T10:37:30.832Z,63.02
2017-03-03T10:38:39.722Z,62.84
2017-03-03T10:39:48.604Z,62.55
2017-03-03T10:40:57.517Z,63.32
2017-03-03T10:42:06.430Z,62.35
2017-03-03T10:43:15.310Z,62.55
2017-03-03T10:44:24.187Z,63.6
2017-03-03T10:45:33.105Z,64.37
2017-03-03T10:46:41.992Z,63.6
2017-03-03T10:47:50.874Z,63.22
2017-03-03T10:48:59.764Z,64.09
2017-03-03T10:50:08.652Z,63.6
2017-03-03T10:51:17.551Z,63.89
2017-03-03T10:52:26.467Z,64.37
2017-03-03T10:53:35.353Z,63.51
2017-03-03T10:54:44.243Z,63.22
2017-03-03T10:55:53.131Z,61.97
2017-03-03T10:57:02.017Z,63.22
2017-03-03T10:58:10.912Z,63.02
2017-03-03T10:59:19.801Z,64.47
2017-03-03T11:00:28.698Z,62.93
2017-03-03T11:01:37.588Z,64.09
2017-03-03T11:02:46.505Z,65.37
2017-03-03T11:03:55.413Z,64.47
2017-03-03T11:05:04.310Z,65.46
2017-03-03T11:06:13.216Z,65.33
2017-03-03T11:07:22.105Z,66
2017-03-03T11:08:30.993Z,66.04
2017-03-03T11:09:39.887Z,62.16
2017-03-03T11:10:49.189Z,65.37
2017-03-03T11:11:58.086Z,64.28
2017-03-03T11:13:06.985Z,64.31
2017-03-03T11:14:15.902Z,65.17
2017-03-03T11:15:24.781Z,65.17
2017-03-03T11:16:34.091Z,65.37
2017-03-03T11:17:43.007Z,66.04
2017-03-03T11:18:51.896Z,65.94
2017-03-03T11:20:00.794Z,65.94
2017-03-03T11:21:09.719Z,65.43
2017-03-03T11:22:18.605Z,58.73
2017-03-03T11:23:27.516Z,58.45
2017-03-03T11:24:36.416Z,54.09
2017-03-03T11:25:45.296Z,54.06
2017-03-03T11:26:54.192Z,54.25
2017-03-03T11:28:03.088Z,54.16
2017-03-03T11:29:11.972Z,53.94
2017-03-03T11:30:20.852Z,52.5
2017-03-03T11:31:29.741Z,52.98
2017-03-03T11:32:38.626Z,52.76
2017-03-03T11:33:47.505Z,53.34
2017-03-03T11:34:56.427Z,54.11
2017-03-03T11:36:05.344Z,54.21
2017-03-03T11:37:14.256Z,54.11
2017-03-03T11:38:23.165Z,54.88
2017-03-03T11:39:32.049Z,53.72
2017-03-03T11:40:40.964Z,54.01
2017-03-03T11:41:49.901Z,53.82
2017-03-03T11:42:58.791Z,52.67
2017-03-03T11:44:07.704Z,53.24
2017-03-03T11:45:16.594Z,54.11
2017-03-03T11:46:25.479Z,53.72
2017-03-03T11:47:34.370Z,53.05
2017-03-03T11:48:43.260Z,53.05
2017-03-03T11:49:52.540Z,52.86
2017-03-03T11:51:01.851Z,53.44
2017-03-03T11:52:11.146Z,53.72
2017-03-03T11:53:20.039Z,53.05
2017-03-03T11:54:28.921Z,53.5
2017-03-03T11:55:37.797Z,53.24
2017-03-03T11:56:47.089Z,53.44
2017-03-03T11:57:56.401Z,53.15
2017-03-03T11:59:05.276Z,53.6
2017-03-03T12:00:16.846Z,51.87
2017-03-03T12:01:26.129Z,51.49
2017-03-03T12:02:35.046Z,51.68
2017-03-03T12:03:43.971Z,51.2
2017-03-03T12:04:52.887Z,52.74
2017-03-03T12:06:01.778Z,52.55
2017-03-03T12:07:10.696Z,52.16
2017-03-03T12:08:19.594Z,53.03
2017-03-03T12:09:28.475Z,52.74
2017-03-03T12:10:37.392Z,53.41
2017-03-03T12:11:46.276Z,53.5
2017-03-03T12:12:55.573Z,53.89
2017-03-03T12:14:04.484Z,53.5
2017-03-03T12:15:13.382Z,53.5
2017-03-03T12:16:22.267Z,54.27
2017-03-03T12:17:31.179Z,54.08
2017-03-03T12:18:40.084Z,54.27
2017-03-03T12:19:49.003Z,54.37
2017-03-03T12:20:57.881Z,56.38
2017-03-03T12:22:06.776Z,58.52
2017-03-03T12:23:15.683Z,59.48
2017-03-03T12:24:24.602Z,59.67
2017-03-03T12:25:33.914Z,59.96
2017-03-03T12:26:43.631Z,59.8
2017-03-03T12:27:52.547Z,60.66
2017-03-03T12:29:01.866Z,61.33
2017-03-03T12:30:10.794Z,60.66
2017-03-03T12:31:19.712Z,61.14
2017-03-03T12:32:29.034Z,60.98
2017-03-03T12:33:37.923Z,60.85
2017-03-03T12:34:46.833Z,61.08
2017-03-03T12:35:55.744Z,60.69
2017-03-03T12:37:04.650Z,61.36
2017-03-03T12:38:13.559Z,61.94
2017-03-03T12:39:22.486Z,62.42
2017-03-03T12:40:31.419Z,62.23
2017-03-03T12:41:40.342Z,62.42
2017-03-03T12:42:49.237Z,62.52
2017-03-03T12:43:58.153Z,62.13
2017-03-03T12:45:07.028Z,63.19
2017-03-03T12:46:15.903Z,62.32
2017-03-03T12:47:24.792Z,63.57
2017-03-03T12:48:33.694Z,62.99
2017-03-03T12:49:42.578Z,63.48
2017-03-03T12:50:51.463Z,63.96
2017-03-03T12:52:00.381Z,63.28
2017-03-03T12:53:09.336Z,63.38
2017-03-03T12:54:18.257Z,63.22
2017-03-03T12:55:27.174Z,63.02
2017-03-03T12:56:36.465Z,63.7
2017-03-03T12:57:45.396Z,64.09
2017-03-03T12:58:54.322Z,64.47
2017-03-03T13:00:03.205Z,64.66
2017-03-03T13:01:12.105Z,64.95
2017-03-03T13:02:20.990Z,64.76
2017-03-03T13:03:29.936Z,64.66
2017-03-03T13:04:38.842Z,65.53
2017-03-03T13:05:47.722Z,65.05
2017-03-03T13:06:56.629Z,64.18
2017-03-03T13:08:05.933Z,64.47
2017-03-03T13:09:14.858Z,64.56
2017-03-03T13:10:23.783Z,64.12
2017-03-03T13:11:32.716Z,64.28
2017-03-03T13:12:41.597Z,63.6
2017-03-03T13:13:50.474Z,63.64
2017-03-03T13:14:59.363Z,64.89
2017-03-03T13:16:08.647Z,64.98
2017-03-03T13:17:17.554Z,65.37
2017-03-03T13:18:26.484Z,66.04
2017-03-03T13:19:35.404Z,64.89
2017-03-03T13:20:44.305Z,64.47
2017-03-03T13:21:53.192Z,65.33
2017-03-03T13:23:02.077Z,65.75
2017-03-03T13:24:10.969Z,65.46
2017-03-03T13:25:19.865Z,64.5
2017-03-03T13:26:28.746Z,65.94
2017-03-03T13:27:38.035Z,66.14
2017-03-03T13:28:46.965Z,65.37
2017-03-03T13:29:55.892Z,65.08
2017-03-03T13:31:04.801Z,65.46
2017-03-03T13:32:13.724Z,63.73
2017-03-03T13:33:22.626Z,64.79
2017-03-03T13:34:31.530Z,65.46
2017-03-03T13:35:40.453Z,65.37
2017-03-03T13:36:49.333Z,66.04
2017-03-03T13:37:58.238Z,65.08
2017-03-03T13:39:07.121Z,65.27
2017-03-03T13:40:16.023Z,65.94
2017-03-03T13:41:24.921Z,63.64
2017-03-03T13:42:33.803Z,65.27
2017-03-03T13:43:42.694Z,63.64
2017-03-03T13:44:51.587Z,64.22
2017-03-03T13:46:00.506Z,63.76
2017-03-03T13:47:09.832Z,65.3
2017-03-03T13:48:18.718Z,66.04
2017-03-03T13:49:27.595Z,65.56
2017-03-03T13:50:36.479Z,66.14
2017-03-03T13:51:45.358Z,64.69
2017-03-03T13:52:54.239Z,65.94
2017-03-03T13:54:03.562Z,64.4
2017-03-03T13:55:12.451Z,64.82
2017-03-03T13:56:21.330Z,65.08
2017-03-03T13:57:30.263Z,63.95
2017-03-03T13:58:39.167Z,61.84
2017-03-03T13:59:48.077Z,64.43
2017-03-03T14:00:56.978Z,62.9
2017-03-03T14:02:05.883Z,65.59
2017-03-03T14:03:14.785Z,63.09
2017-03-03T14:04:23.723Z,61.74
2017-03-03T14:05:33.015Z,66.46
2017-03-03T14:06:41.904Z,67.8
2017-03-03T14:07:50.796Z,67.22
2017-03-03T14:08:59.736Z,68.19
2017-03-03T14:10:08.661Z,67.71
2017-03-03T14:11:17.552Z,67.93
2017-03-03T14:12:26.476Z,68.22
2017-03-03T14:13:35.393Z,69.38
2017-03-03T14:14:44.297Z,68.99
2017-03-03T14:15:53.214Z,69.67
2017-03-03T14:17:02.523Z,69.67
2017-03-03T14:18:11.455Z,68.7
2017-03-03T14:19:20.340Z,67.83
2017-03-03T14:20:29.236Z,66.78
2017-03-03T14:21:38.157Z,68.03
2017-03-03T14:22:47.059Z,68.7
2017-03-03T14:23:55.961Z,68.6
2017-03-03T14:25:04.915Z,68.22
2017-03-03T14:26:14.006Z,68.6
2017-03-03T14:27:22.884Z,68.6
2017-03-03T14:28:31.798Z,68.41
2017-03-03T14:29:40.699Z,68.8
2017-03-03T14:30:49.593Z,68.6
2017-03-03T14:31:58.887Z,68.32
2017-03-03T14:33:07.788Z,68.9
2017-03-03T14:34:17.078Z,68.99
2017-03-03T14:35:25.988Z,68.8
2017-03-03T14:36:34.891Z,68.7
2017-03-03T14:37:43.790Z,69.09
2017-03-03T14:38:52.727Z,68.26
2017-03-03T14:40:02.049Z,68.64
2017-03-03T14:41:10.957Z,68.44
2017-03-03T14:42:19.848Z,68.64
2017-03-03T14:43:28.757Z,68.64
2017-03-03T14:44:37.636Z,68.35
2017-03-03T14:45:46.535Z,68.64
2017-03-03T14:46:55.439Z,68.26
2017-03-03T14:48:04.353Z,68.44
2017-03-03T14:49:13.281Z,68.35
2017-03-03T14:50:22.192Z,68.64
2017-03-03T14:51:31.108Z,67.97
2017-03-03T14:52:40.012Z,67.61